Time;durP1;ratioP1;P1;durP2;ratioP2;P2;SDS_P1;SDS_P2;PMS_P1;PMS_P2;Temp;Humidity;BMP_temperature;BMP_pressure;BME280_temperature;BME280_humidity;BME280_pressure;Samples;Min_cycle;Max_cycle;Signal;HPM_P1;HPM_P2
2023/01/31 00:00:39;;;;;;;1.93;1.43;;;19.40;33.10;;;;;;4972809;28;20580;-64
2023/01/31 00:03:04;;;;;;;1.30;1.20;;;19.40;33.20;;;;;;4974338;28;20240;-64
2023/01/31 00:05:30;;;;;;;1.60;1.10;;;19.40;33.10;;;;;;4972988;28;20340;-64
2023/01/31 00:07:55;;;;;;;1.00;0.87;;;19.40;33.10;;;;;;4973392;28;20228;-64
2023/01/31 00:10:21;;;;;;;1.80;1.30;;;19.40;33.20;;;;;;4972339;28;20314;-63
2023/01/31 00:12:46;;;;;;;2.00;1.40;;;19.40;33.10;;;;;;4967881;28;20271;-63
2023/01/31 00:15:15;;;;;;;1.40;1.10;;;19.40;33.20;;;;;;4969466;28;20228;-63
2023/01/31 00:17:40;;;;;;;2.37;1.00;;;19.40;33.20;;;;;;4969833;28;20744;-63
2023/01/31 00:20:07;;;;;;;1.60;1.50;;;19.40;33.10;;;;;;4972946;28;20462;-63
2023/01/31 00:22:32;;;;;;;1.40;1.10;;;19.40;33.10;;;;;;4972806;28;20331;-64
2023/01/31 00:24:58;;;;;;;1.30;1.00;;;19.40;33.20;;;;;;4973203;28;20553;-63
2023/01/31 00:27:23;;;;;;;1.53;1.17;;;19.40;33.20;;;;;;4970668;28;20216;-64
2023/01/31 00:29:49;;;;;;;1.63;1.20;;;19.40;33.20;;;;;;4975390;28;20238;-63
2023/01/31 00:32:14;;;;;;;1.43;1.20;;;19.40;33.10;;;;;;4970047;28;20243;-63
2023/01/31 00:34:40;;;;;;;1.93;1.13;;;19.40;33.10;;;;;;4971090;28;20231;-64
2023/01/31 00:37:05;;;;;;;1.80;1.40;;;19.40;33.20;;;;;;4972302;28;20300;-63
2023/01/31 00:39:31;;;;;;;1.17;1.07;;;19.40;33.20;;;;;;4971476;28;20228;-64
2023/01/31 00:41:56;;;;;;;1.40;1.30;;;19.40;33.10;;;;;;4971415;28;20215;-63
2023/01/31 00:44:22;;;;;;;1.33;1.10;;;19.40;33.10;;;;;;4973480;28;20243;-63
2023/01/31 00:46:47;;;;;;;1.20;1.10;;;19.40;33.10;;;;;;4969719;28;20229;-64
2023/01/31 00:49:13;;;;;;;2.93;1.30;;;19.40;33.10;;;;;;4974310;28;20278;-64
2023/01/31 00:51:38;;;;;;;2.07;1.40;;;19.40;33.10;;;;;;4967274;28;20268;-63
2023/01/31 00:54:04;;;;;;;1.40;1.30;;;19.40;33.20;;;;;;4973553;28;20224;-63
2023/01/31 00:56:30;;;;;;;1.73;1.30;;;19.40;33.10;;;;;;4970570;28;20248;-63
2023/01/31 00:58:55;;;;;;;1.43;1.20;;;19.40;33.10;;;;;;4973040;28;20228;-63
2023/01/31 01:01:25;;;;;;;1.83;1.70;;;19.40;33.20;;;;;;4971183;28;20224;-64
2023/01/31 01:03:51;;;;;;;1.30;1.20;;;19.40;33.20;;;;;;4966702;28;20233;-64
2023/01/31 01:06:17;;;;;;;2.70;1.30;;;19.40;33.20;;;;;;4952494;28;20457;-64
2023/01/31 01:08:44;;;;;;;1.10;1.00;;;19.40;33.10;;;;;;4964801;28;20432;-63
2023/01/31 01:11:16;;;;;;;1.60;1.50;;;19.40;33.10;;;;;;4969096;28;21474;-63
2023/01/31 01:13:42;;;;;;;2.80;1.40;;;19.40;33.10;;;;;;4971171;28;20474;-63
2023/01/31 01:16:14;;;;;;;1.40;1.20;;;19.40;33.10;;;;;;4963059;28;21385;-63
2023/01/31 01:18:40;;;;;;;1.43;1.20;;;19.40;33.10;;;;;;4967552;28;20447;-63
2023/01/31 01:21:11;;;;;;;1.23;1.03;;;19.40;33.10;;;;;;4967424;28;20465;-63
2023/01/31 01:23:39;;;;;;;1.40;1.30;;;19.40;33.10;;;;;;4967812;28;20535;-63
2023/01/31 01:26:05;;;;;;;3.37;1.30;;;19.40;33.20;;;;;;4967310;28;20700;-63
2023/01/31 01:28:34;;;;;;;1.40;1.30;;;19.40;33.20;;;;;;4969068;28;20458;-63
2023/01/31 01:31:07;;;;;;;1.27;1.17;;;19.40;33.10;;;;;;4967257;28;20984;-62
2023/01/31 01:33:33;;;;;;;1.30;1.00;;;19.40;33.10;;;;;;4968890;28;20466;-63
2023/01/31 01:36:03;;;;;;;1.23;1.13;;;19.40;33.20;;;;;;4965123;28;20531;-63
2023/01/31 01:38:28;;;;;;;1.70;1.30;;;19.40;33.10;;;;;;4971852;28;20458;-64
2023/01/31 01:40:54;;;;;;;2.40;1.20;;;19.40;33.10;;;;;;4969394;28;20880;-63
2023/01/31 01:43:19;;;;;;;1.43;1.33;;;19.40;33.20;;;;;;4971327;28;20241;-64
2023/01/31 01:45:45;;;;;;;1.87;1.20;;;19.40;33.10;;;;;;4967015;28;20324;-63
2023/01/31 01:48:15;;;;;;;1.53;1.40;;;19.40;33.10;;;;;;4976237;28;20296;-63
2023/01/31 01:50:45;;;;;;;1.47;1.27;;;19.40;33.10;;;;;;4972053;28;20230;-64
2023/01/31 01:53:21;;;;;;;1.17;1.07;;;19.40;33.20;;;;;;4971631;28;20461;-64
2023/01/31 01:55:54;;;;;;;2.63;1.40;;;19.40;33.20;;;;;;4970382;28;20497;-64
2023/01/31 01:58:25;;;;;;;1.50;1.27;;;19.40;33.10;;;;;;4972306;28;20443;-64
2023/01/31 02:00:52;;;;;;;2.73;1.20;;;19.40;33.10;;;;;;4967973;28;20463;-63
2023/01/31 02:03:18;;;;;;;1.50;1.27;;;19.40;33.10;;;;;;4972863;28;20458;-63
2023/01/31 02:05:51;;;;;;;1.30;1.10;;;19.40;33.10;;;;;;4969445;28;20974;-63
2023/01/31 02:08:20;;;;;;;1.30;1.20;;;19.40;33.10;;;;;;4971880;28;20224;-64
2023/01/31 02:10:54;;;;;;;3.00;1.30;;;19.40;33.10;;;;;;4971827;28;20509;-64
2023/01/31 02:13:20;;;;;;;1.20;1.10;;;19.40;33.10;;;;;;4970710;28;21602;-64
2023/01/31 02:15:47;;;;;;;1.47;1.10;;;19.40;33.10;;;;;;4974775;28;20466;-64
2023/01/31 02:18:13;;;;;;;1.70;1.20;;;19.40;33.10;;;;;;4972798;28;20951;-63
2023/01/31 02:20:47;;;;;;;1.57;1.33;;;19.40;33.10;;;;;;4968438;28;20453;-64
2023/01/31 02:23:13;;;;;;;1.13;1.03;;;19.40;33.10;;;;;;4969623;28;20489;-64
2023/01/31 02:25:53;;;;;;;1.70;1.17;;;19.40;33.20;;;;;;4972259;28;20454;-64
2023/01/31 02:28:57;;;;;;;1.40;1.20;;;19.40;33.10;;;;;;4975568;28;20235;-64
2023/01/31 02:31:47;;;;;;;1.00;0.90;;;19.40;33.20;;;;;;4931227;28;20495;-63
2023/01/31 02:34:40;;;;;;;1.57;1.40;;;19.40;33.10;;;;;;4935859;28;20816;-64
2023/01/31 02:37:27;;;;;;;1.57;1.30;;;19.40;33.10;;;;;;4963876;28;20489;-63
2023/01/31 02:40:18;;;;;;;1.20;1.03;;;19.40;33.10;;;;;;4974986;28;20472;-64
2023/01/31 02:43:05;;;;;;;2.50;1.13;;;19.40;33.10;;;;;;4975139;28;20564;-64
2023/01/31 02:45:39;;;;;;;1.50;1.40;;;19.40;33.20;;;;;;4967962;28;21385;-63
2023/01/31 02:48:06;;;;;;;1.30;1.10;;;19.40;33.10;;;;;;4971952;28;20494;-64
2023/01/31 02:50:55;;;;;;;1.43;1.33;;;19.40;33.10;;;;;;4977093;28;20512;-64
2023/01/31 02:53:30;;;;;;;1.57;1.47;;;19.40;33.10;;;;;;4974135;28;20474;-64
2023/01/31 02:56:24;;;;;;;1.50;1.40;;;19.40;33.10;;;;;;4976984;28;20469;-64
2023/01/31 02:58:53;;;;;;;1.40;1.30;;;19.40;33.20;;;;;;4968566;28;20424;-64
2023/01/31 03:01:26;;;;;;;3.00;1.23;;;19.40;33.10;;;;;;4968789;28;20450;-64
2023/01/31 03:03:52;;;;;;;2.33;1.27;;;19.40;33.10;;;;;;4974239;28;20461;-64
2023/01/31 03:06:22;;;;;;;2.90;1.40;;;19.40;33.10;;;;;;4973202;28;20984;-64
2023/01/31 03:08:52;;;;;;;1.40;1.20;;;19.30;33.10;;;;;;4971905;28;20228;-64
2023/01/31 03:11:20;;;;;;;1.53;1.43;;;19.40;33.10;;;;;;4973415;28;20462;-64
2023/01/31 03:14:18;;;;;;;1.87;1.30;;;19.40;33.10;;;;;;4974170;28;20469;-64
2023/01/31 03:20:04;;;;;;;2.23;1.40;;;19.30;33.10;;;;;;4976046;28;20457;-61
2023/01/31 03:22:40;;;;;;;1.30;1.20;;;19.30;33.00;;;;;;4969110;28;20957;-62
2023/01/31 03:25:09;;;;;;;1.43;1.30;;;19.30;33.00;;;;;;4972329;28;20461;-63
2023/01/31 03:27:36;;;;;;;1.60;1.40;;;19.30;33.00;;;;;;4972255;28;20428;-64
2023/01/31 03:30:11;;;;;;;1.70;1.30;;;19.40;33.10;;;;;;4974575;28;20421;-63
2023/01/31 03:32:44;;;;;;;1.37;1.20;;;19.30;33.00;;;;;;4969598;28;21451;-62
2023/01/31 03:35:10;;;;;;;2.60;1.17;;;19.30;33.10;;;;;;4974086;28;20461;-63
2023/01/31 03:37:45;;;;;;;1.40;1.13;;;19.30;33.00;;;;;;4971538;28;20462;-63
2023/01/31 03:40:28;;;;;;;1.63;1.53;;;19.30;33.10;;;;;;4976056;28;20464;-63
2023/01/31 03:43:09;;;;;;;1.30;1.20;;;19.30;33.00;;;;;;4970383;28;20481;-63
2023/01/31 03:45:45;;;;;;;1.40;1.20;;;19.30;33.00;;;;;;4973653;28;22328;-64
2023/01/31 03:48:16;;;;;;;1.27;1.17;;;19.30;33.10;;;;;;4971509;28;20448;-63
2023/01/31 03:50:48;;;;;;;1.40;1.30;;;19.30;33.00;;;;;;4974925;28;20478;-63
2023/01/31 03:53:31;;;;;;;1.63;1.20;;;19.30;33.00;;;;;;4973783;28;20429;-62
2023/01/31 03:56:14;;;;;;;1.60;1.43;;;19.30;33.00;;;;;;4972419;28;20440;-62
2023/01/31 03:58:46;;;;;;;2.43;1.40;;;19.30;33.00;;;;;;4972145;28;20440;-63
2023/01/31 04:01:13;;;;;;;1.40;1.30;;;19.30;33.10;;;;;;4968461;28;20444;-63
2023/01/31 04:03:51;;;;;;;1.27;1.17;;;19.30;33.10;;;;;;4974247;28;20452;-64
2023/01/31 04:06:16;;;;;;;1.33;1.20;;;19.30;33.00;;;;;;4970590;28;20464;-63
2023/01/31 04:08:42;;;;;;;1.20;1.10;;;19.30;33.10;;;;;;4975985;28;20470;-63
2023/01/31 04:11:10;;;;;;;2.33;1.30;;;19.30;33.10;;;;;;4968078;28;20228;-63
2023/01/31 04:13:36;;;;;;;1.53;1.33;;;19.30;33.20;;;;;;4973025;28;20592;-63
2023/01/31 04:16:02;;;;;;;1.70;1.30;;;19.30;33.20;;;;;;4968656;28;20456;-64
2023/01/31 04:18:28;;;;;;;1.47;1.20;;;19.30;33.20;;;;;;4973855;28;20283;-63
2023/01/31 04:20:53;;;;;;;1.30;1.20;;;19.30;33.20;;;;;;4972547;28;20473;-63
2023/01/31 04:23:19;;;;;;;1.40;1.30;;;19.30;33.30;;;;;;4973635;28;20255;-63
2023/01/31 04:25:45;;;;;;;1.60;1.27;;;19.30;33.30;;;;;;4972971;28;20220;-63
2023/01/31 04:28:11;;;;;;;1.60;1.13;;;19.30;33.20;;;;;;4973269;28;20224;-64
2023/01/31 04:30:36;;;;;;;1.20;1.10;;;19.30;33.30;;;;;;4974838;28;20414;-63
2023/01/31 04:33:02;;;;;;;1.67;1.30;;;19.30;33.30;;;;;;4971424;28;20232;-63
2023/01/31 04:35:28;;;;;;;1.90;1.80;;;19.20;34.10;;;;;;4974261;28;20217;-63
2023/01/31 04:37:54;;;;;;;2.93;1.40;;;19.30;33.50;;;;;;4974020;28;20680;-64
2023/01/31 04:40:20;;;;;;;1.60;1.50;;;19.30;34.20;;;;;;4972978;28;20703;-64
2023/01/31 04:42:45;;;;;;;2.07;1.30;;;19.30;33.40;;;;;;4973590;28;20278;-63
2023/01/31 04:45:11;;;;;;;1.30;1.10;;;19.30;33.30;;;;;;4973982;28;20458;-63
2023/01/31 04:47:37;;;;;;;1.30;1.13;;;19.30;33.20;;;;;;4972579;28;20224;-64
2023/01/31 04:50:03;;;;;;;4.30;1.30;;;19.40;33.20;;;;;;4972641;28;20224;-63
2023/01/31 04:52:28;;;;;;;1.40;1.30;;;19.40;33.10;;;;;;4970836;28;20711;-63
2023/01/31 04:54:54;;;;;;;1.60;1.10;;;19.40;33.10;;;;;;4971173;28;20454;-65
2023/01/31 04:57:19;;;;;;;1.40;1.30;;;19.40;33.20;;;;;;4970011;28;20216;-66
2023/01/31 04:59:45;;;;;;;1.70;1.40;;;19.40;33.10;;;;;;4972994;28;20224;-65
2023/01/31 05:02:13;;;;;;;1.80;1.27;;;19.40;33.10;;;;;;4968398;28;20224;-64
2023/01/31 05:04:39;;;;;;;1.87;1.33;;;19.50;33.20;;;;;;4971472;28;20335;-63
2023/01/31 05:07:04;;;;;;;1.50;1.30;;;19.50;34.00;;;;;;4971534;28;20841;-63
2023/01/31 05:09:30;;;;;;;1.97;1.50;;;19.50;33.20;;;;;;4972366;28;20208;-63
2023/01/31 05:11:56;;;;;;;1.47;1.37;;;19.50;33.20;;;;;;4966217;28;20235;-64
2023/01/31 05:14:21;;;;;;;2.07;1.40;;;19.50;33.20;;;;;;4967073;28;20212;-63
2023/01/31 05:16:47;;;;;;;1.50;1.27;;;19.60;33.30;;;;;;4966451;28;20236;-64
2023/01/31 05:19:13;;;;;;;1.40;1.30;;;19.60;33.30;;;;;;4970485;28;20216;-63
2023/01/31 05:21:54;;;;;;;1.40;1.30;;;19.60;33.30;;;;;;4965575;28;20235;-63
2023/01/31 05:24:21;;;;;;;1.50;1.33;;;19.60;33.30;;;;;;4971201;28;20484;-64
2023/01/31 05:26:49;;;;;;;1.33;1.23;;;19.60;33.30;;;;;;4966902;28;20458;-63
2023/01/31 05:29:15;;;;;;;3.53;1.30;;;19.60;33.30;;;;;;4969074;28;20548;-63
2023/01/31 05:31:40;;;;;;;1.73;1.50;;;19.60;33.30;;;;;;4971338;28;20454;-61
2023/01/31 05:34:06;;;;;;;1.73;1.63;;;19.60;33.30;;;;;;4966678;28;20231;-62
2023/01/31 05:36:31;;;;;;;1.13;1.03;;;19.60;33.30;;;;;;4970964;28;20216;-63
2023/01/31 05:38:57;;;;;;;1.57;1.47;;;19.50;33.20;;;;;;4973156;28;20564;-62
2023/01/31 05:41:22;;;;;;;2.80;1.30;;;19.60;33.30;;;;;;4968992;28;20235;-63
2023/01/31 05:43:48;;;;;;;1.30;1.20;;;19.60;34.10;;;;;;4969031;28;20906;-63
2023/01/31 05:46:13;;;;;;;2.07;1.50;;;19.50;33.20;;;;;;4967462;28;20690;-63
2023/01/31 05:48:39;;;;;;;1.60;1.50;;;19.50;33.20;;;;;;4967190;28;20234;-63
2023/01/31 05:51:04;;;;;;;1.70;1.20;;;19.50;33.20;;;;;;4971060;28;20235;-64
2023/01/31 05:53:30;;;;;;;1.50;1.40;;;19.50;33.20;;;;;;4970687;28;20255;-63
2023/01/31 05:55:55;;;;;;;1.40;1.30;;;19.50;33.20;;;;;;4971909;28;20677;-64
2023/01/31 05:58:21;;;;;;;1.67;1.57;;;19.50;33.20;;;;;;4970598;28;21016;-64
2023/01/31 06:00:46;;;;;;;1.63;1.47;;;19.50;33.20;;;;;;4972663;28;20231;-64
2023/01/31 06:03:12;;;;;;;1.40;1.20;;;19.50;34.00;;;;;;4969923;28;20220;-65
2023/01/31 06:05:39;;;;;;;2.43;1.40;;;19.50;33.20;;;;;;4974990;28;20304;-64
2023/01/31 06:08:05;;;;;;;1.40;1.30;;;19.50;33.20;;;;;;4962434;28;20350;-65
2023/01/31 06:10:30;;;;;;;1.47;1.37;;;19.50;33.20;;;;;;4970688;28;20521;-63
2023/01/31 06:12:56;;;;;;;1.53;1.40;;;19.50;33.20;;;;;;4969473;28;20429;-64
2023/01/31 06:15:21;;;;;;;2.13;1.10;;;19.50;33.20;;;;;;4970928;28;20256;-64
2023/01/31 06:17:47;;;;;;;1.50;1.40;;;19.50;33.20;;;;;;4966073;28;20234;-63
2023/01/31 06:20:12;;;;;;;1.50;1.40;;;19.50;33.20;;;;;;4902426;28;20434;-65
2023/01/31 06:22:39;;;;;;;2.30;1.50;;;19.50;33.30;;;;;;4890331;28;20299;-64
2023/01/31 06:25:05;;;;;;;1.93;1.83;;;19.50;33.20;;;;;;4956840;28;20320;-63
2023/01/31 06:27:32;;;;;;;1.63;1.53;;;19.50;33.20;;;;;;4959703;28;21105;-62
2023/01/31 06:29:58;;;;;;;1.60;1.47;;;19.60;33.30;;;;;;4960968;28;20512;-62
2023/01/31 06:32:23;;;;;;;1.30;1.20;;;19.60;33.30;;;;;;4961204;28;20519;-63
2023/01/31 06:34:49;;;;;;;1.77;1.67;;;19.60;33.30;;;;;;4968106;28;20708;-63
2023/01/31 06:37:14;;;;;;;1.53;1.40;;;19.60;33.30;;;;;;4962494;28;20236;-63
2023/01/31 06:39:40;;;;;;;2.23;1.17;;;19.60;33.30;;;;;;4964798;28;20216;-63
2023/01/31 06:42:05;;;;;;;1.80;1.33;;;19.60;33.30;;;;;;4963066;28;20315;-63
2023/01/31 06:44:32;;;;;;;2.70;1.33;;;19.50;33.20;;;;;;4967957;28;20267;-63
2023/01/31 06:46:59;;;;;;;1.60;1.50;;;19.50;33.20;;;;;;4965871;28;20673;-62
2023/01/31 06:49:24;;;;;;;2.67;1.43;;;19.50;33.20;;;;;;4971160;28;20426;-63
2023/01/31 06:51:50;;;;;;;2.10;1.53;;;19.50;33.20;;;;;;4964637;28;20424;-63
2023/01/31 06:54:15;;;;;;;1.73;1.63;;;19.50;33.20;;;;;;4969601;28;20307;-63
2023/01/31 06:56:41;;;;;;;1.77;1.30;;;19.50;33.20;;;;;;4970607;28;20220;-63
2023/01/31 06:59:06;;;;;;;1.70;1.60;;;19.50;33.20;;;;;;4971408;28;20701;-63
2023/01/31 07:01:32;;;;;;;1.53;1.43;;;19.50;33.20;;;;;;4966137;28;20228;-63
2023/01/31 07:03:57;;;;;;;1.27;1.17;;;19.50;33.20;;;;;;4973848;28;20311;-62
2023/01/31 07:06:23;;;;;;;1.53;1.30;;;19.50;33.20;;;;;;4970244;28;20227;-63
2023/01/31 07:08:48;;;;;;;3.47;1.90;;;19.50;33.20;;;;;;4972686;28;20234;-63
2023/01/31 07:11:14;;;;;;;2.80;1.50;;;19.50;33.30;;;;;;4970125;28;20255;-63
2023/01/31 07:13:39;;;;;;;1.50;1.40;;;19.50;33.20;;;;;;4969797;28;20228;-63
2023/01/31 07:16:05;;;;;;;1.80;1.70;;;19.50;33.20;;;;;;4969089;28;20262;-62
2023/01/31 07:18:30;;;;;;;1.90;1.70;;;19.50;33.20;;;;;;4969061;28;20223;-62
2023/01/31 07:20:56;;;;;;;1.53;1.33;;;19.50;33.20;;;;;;4961542;28;20343;-63
2023/01/31 07:23:22;;;;;;;2.00;1.37;;;19.50;33.20;;;;;;4968603;28;20271;-62
2023/01/31 07:25:47;;;;;;;2.07;1.27;;;19.50;33.20;;;;;;4971498;28;20900;-63
2023/01/31 07:28:13;;;;;;;1.30;1.20;;;19.50;33.20;;;;;;4970171;28;20224;-63
2023/01/31 07:30:42;;;;;;;1.63;1.50;;;19.50;33.20;;;;;;4972139;28;20229;-63
2023/01/31 07:33:09;;;;;;;4.00;1.73;;;19.50;33.20;;;;;;4968837;28;21444;-63
2023/01/31 07:35:34;;;;;;;1.63;1.43;;;19.50;33.20;;;;;;4965672;28;20429;-63
2023/01/31 07:38:00;;;;;;;1.50;1.40;;;19.50;33.20;;;;;;4968654;28;22263;-63
2023/01/31 07:40:25;;;;;;;1.80;1.70;;;19.50;33.20;;;;;;4970212;28;20239;-63
2023/01/31 07:42:56;;;;;;;1.63;1.37;;;19.50;33.20;;;;;;4968740;28;20326;-63
2023/01/31 07:45:21;;;;;;;2.33;1.70;;;19.50;33.20;;;;;;4972896;28;20235;-63
2023/01/31 07:47:47;;;;;;;1.97;1.40;;;19.50;33.20;;;;;;4968135;28;20450;-63
2023/01/31 07:50:12;;;;;;;1.60;1.50;;;19.50;33.20;;;;;;4971623;28;20244;-62
2023/01/31 07:52:38;;;;;;;3.67;1.70;;;19.50;33.20;;;;;;4972490;28;20224;-63
2023/01/31 07:55:03;;;;;;;2.70;1.47;;;19.50;33.20;;;;;;4972871;28;20216;-63
2023/01/31 07:57:30;;;;;;;1.77;1.20;;;19.50;33.20;;;;;;4971592;28;20220;-62
2023/01/31 07:59:56;;;;;;;1.97;1.47;;;19.50;33.20;;;;;;4970956;28;20260;-62
2023/01/31 08:05:08;;;;;;;1.47;1.20;;;19.50;33.20;;;;;;4972995;28;20239;-63
2023/01/31 08:07:33;;;;;;;1.30;1.20;;;19.50;33.20;;;;;;4974545;28;20466;-63
2023/01/31 08:09:59;;;;;;;1.37;1.27;;;19.50;33.20;;;;;;4973843;28;20455;-63
2023/01/31 08:12:24;;;;;;;2.30;1.60;;;19.50;33.20;;;;;;4972974;28;20662;-63
2023/01/31 08:14:50;;;;;;;1.63;1.27;;;19.50;33.20;;;;;;4975022;28;20242;-63
2023/01/31 08:17:15;;;;;;;2.10;1.40;;;19.50;33.20;;;;;;4971828;28;20259;-63
2023/01/31 08:19:41;;;;;;;1.60;1.50;;;19.50;33.20;;;;;;4975640;28;20298;-62
2023/01/31 08:22:06;;;;;;;2.13;1.57;;;19.50;33.60;;;;;;4972024;28;20253;-63
2023/01/31 08:24:32;;;;;;;1.73;1.23;;;19.50;33.20;;;;;;4975104;28;20260;-63
2023/01/31 08:26:59;;;;;;;1.90;1.30;;;19.50;33.20;;;;;;4971108;28;20228;-63
2023/01/31 08:29:24;;;;;;;2.63;1.40;;;19.50;33.20;;;;;;4973344;28;20228;-63
2023/01/31 08:31:51;;;;;;;2.30;1.47;;;19.50;33.20;;;;;;4972438;28;20976;-63
2023/01/31 08:34:16;;;;;;;1.30;1.20;;;19.50;33.20;;;;;;4973933;28;20318;-63
2023/01/31 08:36:42;;;;;;;1.90;1.80;;;19.50;33.20;;;;;;4971952;28;21044;-64
2023/01/31 08:39:08;;;;;;;1.30;1.20;;;19.50;33.20;;;;;;4961949;28;20242;-64
2023/01/31 08:41:35;;;;;;;1.70;1.50;;;19.50;33.20;;;;;;4963392;28;21226;-64
2023/01/31 08:44:02;;;;;;;2.50;1.60;;;19.50;33.20;;;;;;4966922;28;20498;-64
2023/01/31 08:46:30;;;;;;;1.47;1.37;;;19.50;33.20;;;;;;4962196;28;20465;-64
2023/01/31 08:48:56;;;;;;;1.27;1.10;;;19.50;33.20;;;;;;4966651;28;20550;-63
2023/01/31 08:51:22;;;;;;;1.40;1.30;;;19.50;33.20;;;;;;4968655;28;20546;-63
2023/01/31 08:53:48;;;;;;;1.93;1.20;;;19.50;33.20;;;;;;4968711;28;20224;-64
2023/01/31 08:56:14;;;;;;;1.43;1.33;;;19.50;33.20;;;;;;4968941;28;20279;-64
2023/01/31 08:58:41;;;;;;;1.50;1.17;;;19.50;33.20;;;;;;4969949;28;20527;-64
2023/01/31 09:01:13;;;;;;;2.83;1.40;;;19.50;33.20;;;;;;4968038;28;21180;-63
2023/01/31 09:03:39;;;;;;;1.70;1.30;;;19.50;33.20;;;;;;4971994;28;20477;-64
2023/01/31 09:06:07;;;;;;;1.50;1.40;;;19.60;33.30;;;;;;4968544;28;20936;-64
2023/01/31 09:08:33;;;;;;;1.43;1.33;;;19.60;33.30;;;;;;4974946;28;20295;-64
2023/01/31 09:11:02;;;;;;;2.70;1.40;;;19.60;33.30;;;;;;4969980;28;20692;-64
2023/01/31 09:13:28;;;;;;;1.63;1.30;;;19.70;33.40;;;;;;4969774;28;20465;-65
2023/01/31 09:16:02;;;;;;;1.47;1.20;;;19.70;33.40;;;;;;4968124;28;20429;-64
2023/01/31 09:18:28;;;;;;;2.50;1.30;;;19.70;33.40;;;;;;4969246;28;20474;-64
2023/01/31 09:20:54;;;;;;;1.83;1.73;;;19.70;33.40;;;;;;4966424;28;20470;-64
2023/01/31 09:23:19;;;;;;;3.60;1.57;;;19.70;33.40;;;;;;4970209;28;21202;-64
2023/01/31 09:25:54;;;;;;;4.43;1.30;;;19.70;33.40;;;;;;4968376;28;20230;-64
2023/01/31 09:28:21;;;;;;;1.40;1.10;;;19.70;33.40;;;;;;4966252;28;20289;-64
2023/01/31 09:30:48;;;;;;;1.70;1.20;;;19.70;33.40;;;;;;4965930;28;20891;-64
2023/01/31 09:33:13;;;;;;;2.00;1.40;;;19.70;33.40;;;;;;4968412;28;20975;-64
2023/01/31 09:35:39;;;;;;;1.80;1.40;;;19.70;33.40;;;;;;4970164;28;20432;-64
2023/01/31 09:38:04;;;;;;;1.57;1.30;;;19.70;33.40;;;;;;4961097;28;20669;-64
2023/01/31 09:40:32;;;;;;;1.33;1.23;;;19.70;33.40;;;;;;4960958;28;20266;-64
2023/01/31 09:43:01;;;;;;;1.20;1.10;;;19.70;33.40;;;;;;4967847;28;20229;-64
2023/01/31 09:45:34;;;;;;;1.50;1.30;;;19.70;33.40;;;;;;4966865;28;20493;-64
2023/01/31 09:48:01;;;;;;;1.47;1.10;;;19.80;33.50;;;;;;4965860;28;20469;-64
2023/01/31 09:50:38;;;;;;;1.73;1.10;;;19.80;33.50;;;;;;4971112;28;20467;-64
2023/01/31 09:53:04;;;;;;;1.30;1.20;;;19.80;33.50;;;;;;4966991;28;20440;-64
2023/01/31 09:55:52;;;;;;;1.80;1.20;;;19.80;33.50;;;;;;4966723;28;20479;-64
2023/01/31 09:58:31;;;;;;;1.10;1.00;;;19.80;33.50;;;;;;4967546;28;21232;-64
2023/01/31 10:01:23;;;;;;;1.63;1.53;;;19.80;33.50;;;;;;4965131;28;20532;-64
2023/01/31 10:04:22;;;;;;;1.30;1.20;;;19.80;33.50;;;;;;4966969;28;20474;-64
2023/01/31 10:07:02;;;;;;;1.87;1.00;;;19.80;33.50;;;;;;4962551;28;20473;-64
2023/01/31 10:09:47;;;;;;;2.10;1.10;;;19.80;33.50;;;;;;4968373;28;20543;-64
2023/01/31 10:12:21;;;;;;;1.77;1.67;;;19.80;33.50;;;;;;4966148;28;20540;-64
2023/01/31 10:14:51;;;;;;;1.50;1.30;;;19.80;33.50;;;;;;4971003;28;20521;-64
2023/01/31 10:17:27;;;;;;;1.80;1.27;;;19.80;33.50;;;;;;4964164;28;20463;-64
2023/01/31 10:19:55;;;;;;;1.30;1.20;;;19.80;33.50;;;;;;4970896;28;20461;-64
2023/01/31 10:22:38;;;;;;;1.20;1.07;;;19.80;33.60;;;;;;4965798;28;20833;-64
2023/01/31 10:25:26;;;;;;;4.57;0.90;;;19.80;33.50;;;;;;4969738;28;20538;-65
2023/01/31 10:28:03;;;;;;;1.60;1.20;;;19.90;33.60;;;;;;4963009;28;20491;-65
2023/01/31 10:30:59;;;;;;;8.73;1.57;;;19.90;33.60;;;;;;4966663;28;20472;-64
2023/01/31 10:33:35;;;;;;;2.00;1.27;;;19.90;33.60;;;;;;4963407;28;20476;-64
2023/01/31 10:36:10;;;;;;;1.40;1.10;;;19.90;33.60;;;;;;4965033;28;20608;-64
2023/01/31 10:38:56;;;;;;;1.20;1.00;;;19.90;33.60;;;;;;4971392;28;20530;-64
2023/01/31 10:41:33;;;;;;;1.20;1.10;;;19.80;33.50;;;;;;4970120;28;20464;-64
2023/01/31 10:44:05;;;;;;;1.40;1.30;;;19.90;33.60;;;;;;4970017;28;21030;-62
2023/01/31 10:46:31;;;;;;;1.17;1.00;;;19.90;33.60;;;;;;4966395;28;20974;-64
2023/01/31 10:48:56;;;;;;;2.80;1.43;;;19.80;33.50;;;;;;4966520;28;20433;-64
2023/01/31 10:51:55;;;;;;;1.27;1.00;;;19.90;33.60;;;;;;4964713;28;20311;-65
2023/01/31 10:54:41;;;;;;;1.17;1.07;;;19.90;33.60;;;;;;4970259;28;20239;-64
2023/01/31 10:57:07;;;;;;;1.13;1.03;;;19.90;33.60;;;;;;4968535;28;20456;-64
2023/01/31 10:59:40;;;;;;;1.77;1.10;;;19.90;33.60;;;;;;4960911;28;20451;-64
2023/01/31 11:02:27;;;;;;;1.00;0.90;;;19.90;33.60;;;;;;4946371;28;20224;-65
2023/01/31 11:04:56;;;;;;;1.27;1.17;;;19.90;33.60;;;;;;4968154;28;20473;-64
2023/01/31 11:07:22;;;;;;;1.20;1.10;;;19.90;33.60;;;;;;4967017;28;21965;-64
2023/01/31 11:09:52;;;;;;;1.30;1.10;;;19.90;33.60;;;;;;4966497;28;20957;-63
2023/01/31 11:12:20;;;;;;;1.40;1.27;;;19.90;33.60;;;;;;4964567;28;20476;-64
2023/01/31 11:15:05;;;;;;;1.93;1.30;;;19.90;33.60;;;;;;4969203;28;20459;-64
2023/01/31 11:17:34;;;;;;;1.37;1.00;;;19.90;33.60;;;;;;4969844;28;20488;-65
2023/01/31 11:20:00;;;;;;;2.90;1.20;;;19.90;33.60;;;;;;4966999;28;20465;-64
2023/01/31 11:22:31;;;;;;;1.30;1.20;;;20.00;33.60;;;;;;4967413;28;20480;-64
2023/01/31 11:24:58;;;;;;;1.20;1.00;;;20.00;33.60;;;;;;4970981;28;20240;-64
2023/01/31 11:27:44;;;;;;;1.10;1.00;;;19.90;33.60;;;;;;4967761;28;20465;-64
2023/01/31 11:30:31;;;;;;;1.30;1.20;;;19.90;33.60;;;;;;4967864;28;20906;-64
2023/01/31 11:32:57;;;;;;;1.00;0.90;;;20.00;33.60;;;;;;4963610;28;20499;-64
2023/01/31 11:35:29;;;;;;;1.87;0.90;;;20.00;33.60;;;;;;4969892;28;20454;-65
2023/01/31 11:37:58;;;;;;;1.20;0.97;;;20.00;33.60;;;;;;4960044;28;20679;-64
2023/01/31 11:40:36;;;;;;;1.00;0.90;;;20.00;33.60;;;;;;4968177;28;20471;-65
2023/01/31 11:43:22;;;;;;;1.70;1.10;;;20.00;33.60;;;;;;4969285;28;20509;-64
2023/01/31 11:46:00;;;;;;;1.03;0.90;;;20.00;33.60;;;;;;4971662;28;20469;-64
2023/01/31 11:48:32;;;;;;;1.20;1.10;;;20.00;33.70;;;;;;4965460;28;20468;-64
2023/01/31 11:51:00;;;;;;;0.90;0.90;;;20.00;33.60;;;;;;4967156;28;20468;-64
2023/01/31 11:53:46;;;;;;;3.13;1.00;;;20.00;33.60;;;;;;4968473;28;20991;-64
2023/01/31 11:56:17;;;;;;;1.13;1.03;;;20.00;33.60;;;;;;4964538;28;21231;-64
2023/01/31 11:58:45;;;;;;;1.00;0.90;;;20.00;33.60;;;;;;4964981;28;20463;-64
2023/01/31 12:01:22;;;;;;;1.23;1.13;;;20.00;33.70;;;;;;4934146;28;20933;-65
2023/01/31 12:03:58;;;;;;;1.80;1.00;;;20.00;33.60;;;;;;4970078;28;20855;-64
2023/01/31 12:06:36;;;;;;;1.20;1.10;;;20.00;33.60;;;;;;4965473;28;20548;-65
2023/01/31 12:09:05;;;;;;;2.07;1.30;;;20.00;34.40;;;;;;4972250;28;20459;-65
2023/01/31 12:11:32;;;;;;;1.23;1.13;;;20.00;33.60;;;;;;4969651;28;21038;-65
2023/01/31 12:14:12;;;;;;;1.30;0.93;;;20.00;33.60;;;;;;4965847;28;20507;-65
2023/01/31 12:16:38;;;;;;;1.30;1.20;;;20.00;33.60;;;;;;4963897;28;20508;-65
2023/01/31 12:19:12;;;;;;;1.23;1.00;;;20.00;33.60;;;;;;4969106;28;20874;-64
2023/01/31 12:21:38;;;;;;;1.30;1.20;;;20.00;33.60;;;;;;4966497;28;20239;-65
2023/01/31 12:24:40;;;;;;;1.13;1.03;;;20.00;33.60;;;;;;4965698;28;20479;-65
2023/01/31 12:27:29;;;;;;;1.40;1.30;;;20.00;33.70;;;;;;4967241;28;20263;-65
2023/01/31 12:30:22;;;;;;;1.53;1.10;;;20.00;33.60;;;;;;4967192;28;20470;-65
2023/01/31 12:32:53;;;;;;;2.00;1.20;;;20.00;33.60;;;;;;4961467;28;20493;-63
2023/01/31 12:35:32;;;;;;;2.47;1.23;;;20.00;33.60;;;;;;4968979;28;20462;-63
2023/01/31 12:38:30;;;;;;;1.57;1.10;;;20.00;33.70;;;;;;4970139;28;20986;-63
2023/01/31 12:41:22;;;;;;;1.40;1.00;;;20.00;33.60;;;;;;4965724;28;20473;-65
2023/01/31 12:44:08;;;;;;;1.17;0.90;;;20.00;33.60;;;;;;4953963;28;20512;-64
2023/01/31 12:46:55;;;;;;;1.10;1.00;;;20.00;33.60;;;;;;4971876;28;20565;-64
2023/01/31 12:49:47;;;;;;;1.10;1.00;;;20.00;33.60;;;;;;4969951;28;20478;-64
2023/01/31 12:52:41;;;;;;;2.00;1.00;;;20.00;33.60;;;;;;4967926;28;20485;-64
2023/01/31 12:55:34;;;;;;;2.40;0.90;;;20.00;33.60;;;;;;4961682;28;20605;-64
2023/01/31 12:58:09;;;;;;;1.50;1.20;;;20.00;33.60;;;;;;4970842;28;20545;-65
2023/01/31 13:00:50;;;;;;;1.10;1.00;;;20.00;33.60;;;;;;4964203;28;20461;-64
2023/01/31 13:03:31;;;;;;;1.90;1.00;;;20.00;33.70;;;;;;4969197;28;20478;-65
2023/01/31 13:06:27;;;;;;;1.07;0.97;;;20.00;33.70;;;;;;4971577;28;20512;-64
2023/01/31 13:09:07;;;;;;;6.00;1.93;;;20.00;33.60;;;;;;4947545;28;21017;-64
2023/01/31 13:11:52;;;;;;;1.00;0.90;;;20.00;33.70;;;;;;4968899;28;20493;-64